Terminal Aerodrome Forecast
Issued by NWS

Home | Current Version | Previous Version | Text Only | Print | Product List | Glossary On
Versions: 1 2 3 4 5 6 7 8 9 10 11 12
000
FTUS45 KVEF 252300
TAFDAG
TAF
KDAG 252320Z 2600/2624 23015G23KT P6SM BKN150
     FM260400 27010KT P6SM BKN150
     FM261800 05006KT P6SM SCT100 BKN150=

USA.gov is the U.S. government's official web portal to all federal, state and local government web resources and services.